KSUE/SUE METAR and TAF weather

Enter ICAO airport designator
Station Type Date Time Source
KSUE METAR 2019/10/15 19:13 UTC NOAA

KSUE 151913Z AUTO 10009G15KT 10SM SCT018 BKN027 OVC065 09/07 A2971 RMK AO2 LTG DSNT ALQDS TSE13RAE10 P0000


Station Type Date Time Source
KSUE Decoded METAR 2019/10/15 19:13 UTC NOAA

Sturgeon Bay, WI, United States (KSUE) 44-51N 087-25W
Oct 15, 2019 - 03:13 PM EDT / 2019.10.15 1913 UTC
Wind: from the E (100 degrees) at 10 MPH (9 KT) gusting to 17 MPH (15 KT):0
Visibility: 10 mile(s):0
Sky conditions: overcast
Weather: Lightning observed
Precipitation last hour: A trace
Temperature: 48 F (9 C)
Dew Point: 44 F (7 C)
Relative Humidity: 87%
Pressure (altimeter): 29.71 in. Hg (1006 hPa)
ob: KSUE 151913Z AUTO 10009G15KT 10SM SCT018 BKN027 OVC065 09/07 A2971 RMK AO2 LTG DSNT ALQDS TSE13RAE10 P0000
cycle: 19

Station Type Date Time Source
KSUE TAF UTC NOAA

Error!

Example: see airport list